Penns Creek, Pennsylvania
Current Conditions -  °F | °C
As of 2:53 PM on Monday 22 Dec 2014 (Local Time) from KSEG Reporting Station
Overcast Overcast  
Wind Chill: 35°   Ceiling: 3900
Heat Index: 35°   Visibility: 9mi
Dew Point: 26°   Wind: 0mph
Humidity: 70%   Direction: NA
Pressure: 30.21"   Gusts: NA
Location:  40.86°N, 77.06°W
Report Text: KSEG 221953Z AUTO 00000KT 9SM OVC039 02/M03 A3021 RMK AO2 SLP236 T00171033
Loading
Personal Weather Stations






























Interactive Weather Map New forecast layout! Learn more

10-Day Weather Forecast

Advertisements
Track Severe Weather on mobile